sensor_id;sensor_type;location;lat;lon;timestamp;pressure;altitude;pressure_sealevel;temperature;humidity
50105;BME280;47690;39.202;-77.198;2023-10-19T00:02:05;100668.47;;;16.45;54.00
50105;BME280;47690;39.202;-77.198;2023-10-19T00:04:38;100662.41;;;16.44;53.93
50105;BME280;47690;39.202;-77.198;2023-10-19T00:07:11;100663.25;;;16.45;53.94
50105;BME280;47690;39.202;-77.198;2023-10-19T00:09:45;100665.06;;;16.43;54.34
50105;BME280;47690;39.202;-77.198;2023-10-19T00:12:17;100660.81;;;16.40;54.28
50105;BME280;47690;39.202;-77.198;2023-10-19T00:14:51;100658.25;;;16.38;54.33
50105;BME280;47690;39.202;-77.198;2023-10-19T00:17:25;100666.00;;;16.40;54.30
50105;BME280;47690;39.202;-77.198;2023-10-19T00:20:01;100662.59;;;16.38;54.80
50105;BME280;47690;39.202;-77.198;2023-10-19T00:22:49;100663.50;;;16.37;54.58
50105;BME280;47690;39.202;-77.198;2023-10-19T00:25:21;100670.50;;;16.35;55.08
50105;BME280;47690;39.202;-77.198;2023-10-19T00:27:54;100668.03;;;16.32;54.92
50105;BME280;47690;39.202;-77.198;2023-10-19T00:30:24;100670.63;;;16.32;54.74
50105;BME280;47690;39.202;-77.198;2023-10-19T00:33:04;100673.13;;;16.33;55.07
50105;BME280;47690;39.202;-77.198;2023-10-19T00:35:51;100678.34;;;16.33;55.39
50105;BME280;47690;39.202;-77.198;2023-10-19T00:38:47;100675.00;;;16.30;55.08
50105;BME280;47690;39.202;-77.198;2023-10-19T00:41:25;100676.69;;;16.31;55.59
50105;BME280;47690;39.202;-77.198;2023-10-19T00:44:00;100677.66;;;16.28;55.55
50105;BME280;47690;39.202;-77.198;2023-10-19T00:46:49;100685.50;;;16.27;55.47
50105;BME280;47690;39.202;-77.198;2023-10-19T00:49:32;100676.91;;;16.24;55.76
50105;BME280;47690;39.202;-77.198;2023-10-19T00:52:06;100671.75;;;16.23;55.91
50105;BME280;47690;39.202;-77.198;2023-10-19T00:54:48;100673.44;;;16.24;55.82
50105;BME280;47690;39.202;-77.198;2023-10-19T00:57:20;100672.66;;;16.22;56.11
50105;BME280;47690;39.202;-77.198;2023-10-19T01:00:03;100670.97;;;16.21;56.21
50105;BME280;47690;39.202;-77.198;2023-10-19T01:02:42;100672.72;;;16.19;56.28
50105;BME280;47690;39.202;-77.198;2023-10-19T01:05:14;100660.00;;;16.11;56.23
50105;BME280;47690;39.202;-77.198;2023-10-19T01:07:43;100672.88;;;16.14;56.60
50105;BME280;47690;39.202;-77.198;2023-10-19T01:10:23;100675.47;;;16.14;56.61
50105;BME280;47690;39.202;-77.198;2023-10-19T01:12:52;100674.66;;;16.14;56.58
50105;BME280;47690;39.202;-77.198;2023-10-19T01:15:22;100668.63;;;16.11;56.58
50105;BME280;47690;39.202;-77.198;2023-10-19T01:18:18;100673.00;;;16.11;56.60
50105;BME280;47690;39.202;-77.198;2023-10-19T01:20:47;100671.38;;;16.07;56.46
50105;BME280;47690;39.202;-77.198;2023-10-19T01:23:23;100668.03;;;16.03;56.44
50105;BME280;47690;39.202;-77.198;2023-10-19T01:25:58;100679.34;;;16.01;56.85
50105;BME280;47690;39.202;-77.198;2023-10-19T01:28:35;100684.66;;;15.97;56.82
50105;BME280;47690;39.202;-77.198;2023-10-19T01:33:47;100683.03;;;15.93;56.83
50105;BME280;47690;39.202;-77.198;2023-10-19T01:36:17;100689.22;;;15.89;57.17
50105;BME280;47690;39.202;-77.198;2023-10-19T01:38:59;100682.47;;;15.83;57.17
50105;BME280;47690;39.202;-77.198;2023-10-19T01:41:41;100682.47;;;15.83;56.94
50105;BME280;47690;39.202;-77.198;2023-10-19T01:44:12;100678.25;;;15.79;56.90
50105;BME280;47690;39.202;-77.198;2023-10-19T01:46:45;100686.97;;;15.77;56.98
50105;BME280;47690;39.202;-77.198;2023-10-19T01:49:18;100694.91;;;15.72;56.90
50105;BME280;47690;39.202;-77.198;2023-10-19T01:51:57;100698.44;;;15.69;56.96
50105;BME280;47690;39.202;-77.198;2023-10-19T01:54:26;100691.66;;;15.65;56.90
50105;BME280;47690;39.202;-77.198;2023-10-19T01:56:58;100691.72;;;15.62;56.81
50105;BME280;47690;39.202;-77.198;2023-10-19T01:59:36;100688.47;;;15.55;57.06
50105;BME280;47690;39.202;-77.198;2023-10-19T02:02:11;100692.03;;;15.51;57.04
50105;BME280;47690;39.202;-77.198;2023-10-19T02:04:43;100693.88;;;15.48;57.28
50105;BME280;47690;39.202;-77.198;2023-10-19T02:07:14;100702.59;;;15.45;57.51
50105;BME280;47690;39.202;-77.198;2023-10-19T02:09:46;100699.19;;;15.43;57.33
50105;BME280;47690;39.202;-77.198;2023-10-19T02:12:16;100701.03;;;15.39;57.31
50105;BME280;47690;39.202;-77.198;2023-10-19T02:14:47;100702.84;;;15.36;56.99
50105;BME280;47690;39.202;-77.198;2023-10-19T02:17:17;100699.59;;;15.29;57.06
50105;BME280;47690;39.202;-77.198;2023-10-19T02:19:51;100712.22;;;15.41;57.33
50105;BME280;47690;39.202;-77.198;2023-10-19T02:22:20;100709.13;;;15.27;56.83
50105;BME280;47690;39.202;-77.198;2023-10-19T02:24:52;100703.31;;;15.19;57.05
50105;BME280;47690;39.202;-77.198;2023-10-19T02:27:23;100703.47;;;15.12;57.17
50105;BME280;47690;39.202;-77.198;2023-10-19T02:30:01;100707.06;;;15.08;56.86
50105;BME280;47690;39.202;-77.198;2023-10-19T02:32:34;100707.13;;;15.05;56.85
50105;BME280;47690;39.202;-77.198;2023-10-19T02:35:04;100702.06;;;15.00;56.68
50105;BME280;47690;39.202;-77.198;2023-10-19T02:37:33;100697.88;;;14.95;56.69
50105;BME280;47690;39.202;-77.198;2023-10-19T02:40:03;100697.13;;;14.91;56.49
50105;BME280;47690;39.202;-77.198;2023-10-19T02:42:48;100691.13;;;14.89;56.65
50105;BME280;47690;39.202;-77.198;2023-10-19T02:45:20;100695.66;;;14.81;56.41
50105;BME280;47690;39.202;-77.198;2023-10-19T02:47:49;100696.66;;;14.75;56.25
50105;BME280;47690;39.202;-77.198;2023-10-19T02:50:19;100695.06;;;14.68;56.18
50105;BME280;47690;39.202;-77.198;2023-10-19T02:52:55;100701.16;;;14.67;56.43
50105;BME280;47690;39.202;-77.198;2023-10-19T02:55:25;100703.03;;;14.61;56.45
50105;BME280;47690;39.202;-77.198;2023-10-19T02:57:55;100703.97;;;14.57;56.30
50105;BME280;47690;39.202;-77.198;2023-10-19T03:00:25;100704.94;;;14.53;56.62
50105;BME280;47690;39.202;-77.198;2023-10-19T03:03:05;100704.16;;;14.50;56.71
50105;BME280;47690;39.202;-77.198;2023-10-19T03:05:34;100704.25;;;14.46;56.56
50105;BME280;47690;39.202;-77.198;2023-10-19T03:08:03;100707.75;;;14.44;56.63
50105;BME280;47690;39.202;-77.198;2023-10-19T03:10:42;100706.97;;;14.40;56.41
50105;BME280;47690;39.202;-77.198;2023-10-19T03:13:12;100707.06;;;14.37;56.41
50105;BME280;47690;39.202;-77.198;2023-10-19T03:15:45;100707.13;;;14.34;56.39
50105;BME280;47690;39.202;-77.198;2023-10-19T03:18:14;100701.28;;;14.24;56.40
50105;BME280;47690;39.202;-77.198;2023-10-19T03:20:47;100709.91;;;14.26;56.41
50105;BME280;47690;39.202;-77.198;2023-10-19T03:23:20;100714.31;;;14.23;56.31
50105;BME280;47690;39.202;-77.198;2023-10-19T03:25:54;100712.63;;;14.20;56.54
50105;BME280;47690;39.202;-77.198;2023-10-19T03:28:45;100716.94;;;14.19;56.69
50105;BME280;47690;39.202;-77.198;2023-10-19T03:31:15;100719.63;;;14.16;56.59
50105;BME280;47690;39.202;-77.198;2023-10-19T03:33:54;100714.47;;;14.13;56.41
50105;BME280;47690;39.202;-77.198;2023-10-19T03:36:25;100718.06;;;14.09;56.38
50105;BME280;47690;39.202;-77.198;2023-10-19T03:38:55;100723.34;;;14.04;56.22
50105;BME280;47690;39.202;-77.198;2023-10-19T03:41:24;100719.09;;;14.00;56.00
50105;BME280;47690;39.202;-77.198;2023-10-19T03:44:08;100723.47;;;13.98;56.13
50105;BME280;47690;39.202;-77.198;2023-10-19T03:47:00;100719.19;;;13.96;56.05
50105;BME280;47690;39.202;-77.198;2023-10-19T03:49:42;100718.44;;;13.90;55.94
50105;BME280;47690;39.202;-77.198;2023-10-19T03:52:12;100714.25;;;13.85;55.78
50105;BME280;47690;39.202;-77.198;2023-10-19T03:54:43;100717.81;;;13.81;55.68
50105;BME280;47690;39.202;-77.198;2023-10-19T03:57:15;100719.63;;;13.75;55.45
50105;BME280;47690;39.202;-77.198;2023-10-19T04:00:11;100724.81;;;13.75;55.68
50105;BME280;47690;39.202;-77.198;2023-10-19T04:02:45;100727.53;;;13.69;55.58
50105;BME280;47690;39.202;-77.198;2023-10-19T04:05:18;100727.63;;;13.64;55.46
50105;BME280;47690;39.202;-77.198;2023-10-19T04:07:52;100725.97;;;13.60;55.42
50105;BME280;47690;39.202;-77.198;2023-10-19T04:10:27;100713.66;;;13.72;55.53
50105;BME280;47690;39.202;-77.198;2023-10-19T04:13:12;100709.63;;;13.58;55.07
50105;BME280;47690;39.202;-77.198;2023-10-19T04:15:45;100718.38;;;13.52;55.22
50105;BME280;47690;39.202;-77.198;2023-10-19T04:18:14;100702.97;;;13.43;55.15
50105;BME280;47690;39.202;-77.198;2023-10-19T04:20:45;100704.75;;;13.41;55.40
50105;BME280;47690;39.202;-77.198;2023-10-19T04:23:24;100708.22;;;13.38;55.41
50105;BME280;47690;39.202;-77.198;2023-10-19T04:25:57;100709.13;;;13.37;55.50
50105;BME280;47690;39.202;-77.198;2023-10-19T04:28:27;100716.06;;;13.35;55.68
50105;BME280;47690;39.202;-77.198;2023-10-19T04:30:59;100704.03;;;13.33;55.91
50105;BME280;47690;39.202;-77.198;2023-10-19T04:33:35;100705.75;;;13.32;55.82
50105;BME280;47690;39.202;-77.198;2023-10-19T04:36:07;100702.34;;;13.32;55.74
50105;BME280;47690;39.202;-77.198;2023-10-19T04:38:40;100707.53;;;13.30;55.98
50105;BME280;47690;39.202;-77.198;2023-10-19T04:41:14;100718.75;;;13.31;55.90
50105;BME280;47690;39.202;-77.198;2023-10-19T04:43:43;100718.78;;;13.28;55.65
50105;BME280;47690;39.202;-77.198;2023-10-19T04:46:19;100717.13;;;13.25;55.56
50105;BME280;47690;39.202;-77.198;2023-10-19T04:48:48;100715.47;;;13.21;55.57
50105;BME280;47690;39.202;-77.198;2023-10-19T04:51:18;100713.81;;;13.17;55.38
50105;BME280;47690;39.202;-77.198;2023-10-19T04:53:49;100711.31;;;13.12;55.26
50105;BME280;47690;39.202;-77.198;2023-10-19T04:56:20;100719.13;;;13.09;55.22
50105;BME280;47690;39.202;-77.198;2023-10-19T04:58:50;100715.78;;;13.04;55.02
50105;BME280;47690;39.202;-77.198;2023-10-19T05:01:22;100708.97;;;13.00;55.03
50105;BME280;47690;39.202;-77.198;2023-10-19T05:03:56;100700.41;;;12.96;54.89
50105;BME280;47690;39.202;-77.198;2023-10-19T05:06:27;100713.38;;;12.94;55.07
50105;BME280;47690;39.202;-77.198;2023-10-19T05:08:55;100704.81;;;12.89;54.97
50105;BME280;47690;39.202;-77.198;2023-10-19T05:11:25;100708.28;;;12.88;55.00
50105;BME280;47690;39.202;-77.198;2023-10-19T05:13:54;100704.91;;;12.84;55.01
50105;BME280;47690;39.202;-77.198;2023-10-19T05:16:24;100707.56;;;12.80;54.83
50105;BME280;47690;39.202;-77.198;2023-10-19T05:18:53;100711.13;;;12.74;54.75
50105;BME280;47690;39.202;-77.198;2023-10-19T05:21:21;100711.97;;;12.73;54.74
50105;BME280;47690;39.202;-77.198;2023-10-19T05:23:50;100715.50;;;12.70;54.90
50105;BME280;47690;39.202;-77.198;2023-10-19T05:26:19;100712.06;;;12.68;54.98
50105;BME280;47690;39.202;-77.198;2023-10-19T05:28:50;100712.97;;;12.66;55.07
50105;BME280;47690;39.202;-77.198;2023-10-19T05:31:20;100718.19;;;12.64;54.99
50105;BME280;47690;39.202;-77.198;2023-10-19T05:33:50;100714.78;;;12.62;55.15
50105;BME280;47690;39.202;-77.198;2023-10-19T05:36:23;100710.50;;;12.60;54.88
50105;BME280;47690;39.202;-77.198;2023-10-19T05:38:53;100713.97;;;12.57;54.76
50105;BME280;47690;39.202;-77.198;2023-10-19T05:41:22;100708.00;;;12.53;54.74
50105;BME280;47690;39.202;-77.198;2023-10-19T05:43:55;100703.78;;;12.48;54.56
50105;BME280;47690;39.202;-77.198;2023-10-19T05:46:25;100704.69;;;12.45;54.54
50105;BME280;47690;39.202;-77.198;2023-10-19T05:48:56;100708.19;;;12.41;54.63
50105;BME280;47690;39.202;-77.198;2023-10-19T05:51:27;100703.91;;;12.38;54.56
50105;BME280;47690;39.202;-77.198;2023-10-19T05:53:56;100710.84;;;12.38;54.66
50105;BME280;47690;39.202;-77.198;2023-10-19T05:56:30;100719.38;;;12.41;54.81
50105;BME280;47690;39.202;-77.198;2023-10-19T05:59:01;100716.00;;;12.38;54.88
50105;BME280;47690;39.202;-77.198;2023-10-19T06:01:30;100717.72;;;12.36;54.71
50105;BME280;47690;39.202;-77.198;2023-10-19T06:03:59;100711.75;;;12.34;54.71
50105;BME280;47690;39.202;-77.198;2023-10-19T06:06:29;100715.19;;;12.33;54.79
50105;BME280;47690;39.202;-77.198;2023-10-19T06:08:58;100730.69;;;12.33;54.74
50105;BME280;47690;39.202;-77.198;2023-10-19T06:11:28;100734.19;;;12.30;54.71
50105;BME280;47690;39.202;-77.198;2023-10-19T06:14:01;100723.91;;;12.27;54.64
50105;BME280;47690;39.202;-77.198;2023-10-19T06:16:33;100730.78;;;12.28;54.75
50105;BME280;47690;39.202;-77.198;2023-10-19T06:19:04;100736.91;;;12.22;54.70
50105;BME280;47690;39.202;-77.198;2023-10-19T06:21:33;100730.91;;;12.19;54.44
50105;BME280;47690;39.202;-77.198;2023-10-19T06:24:02;100733.53;;;12.14;54.26
50105;BME280;47690;39.202;-77.198;2023-10-19T06:26:31;100725.84;;;12.09;54.31
50105;BME280;47690;39.202;-77.198;2023-10-19T06:29:00;100726.72;;;12.08;54.28
50105;BME280;47690;39.202;-77.198;2023-10-19T06:31:33;100720.75;;;12.06;54.26
50105;BME280;47690;39.202;-77.198;2023-10-19T06:34:06;100718.19;;;12.01;54.13
50105;BME280;47690;39.202;-77.198;2023-10-19T06:36:35;100725.94;;;12.01;54.03
50105;BME280;47690;39.202;-77.198;2023-10-19T06:39:08;100723.38;;;11.98;54.21
50105;BME280;47690;39.202;-77.198;2023-10-19T06:41:39;100726.03;;;11.94;54.19
50105;BME280;47690;39.202;-77.198;2023-10-19T06:44:14;100728.63;;;11.94;54.35
50105;BME280;47690;39.202;-77.198;2023-10-19T06:46:46;100720.91;;;11.92;54.25
50105;BME280;47690;39.202;-77.198;2023-10-19T06:49:15;100718.34;;;11.89;53.95
50105;BME280;47690;39.202;-77.198;2023-10-19T06:51:47;100715.81;;;11.86;54.25
50105;BME280;47690;39.202;-77.198;2023-10-19T06:54:15;100714.13;;;11.85;54.18
50105;BME280;47690;39.202;-77.198;2023-10-19T06:56:45;100716.72;;;11.83;54.12
50105;BME280;47690;39.202;-77.198;2023-10-19T06:59:15;100708.16;;;11.80;53.98
50105;BME280;47690;39.202;-77.198;2023-10-19T07:01:47;100706.47;;;11.77;54.16
50105;BME280;47690;39.202;-77.198;2023-10-19T07:04:18;100707.34;;;11.76;54.28
50105;BME280;47690;39.202;-77.198;2023-10-19T07:06:50;100700.47;;;11.75;54.26
50105;BME280;47690;39.202;-77.198;2023-10-19T07:09:21;100693.63;;;11.71;54.24
50105;BME280;47690;39.202;-77.198;2023-10-19T07:11:51;100699.66;;;11.71;54.07
50105;BME280;47690;39.202;-77.198;2023-10-19T07:14:24;100696.22;;;11.69;54.00
50105;BME280;47690;39.202;-77.198;2023-10-19T07:16:53;100695.44;;;11.64;53.91
50105;BME280;47690;39.202;-77.198;2023-10-19T07:19:22;100698.03;;;11.61;53.90
50105;BME280;47690;39.202;-77.198;2023-10-19T07:21:52;100692.06;;;11.57;53.83
50105;BME280;47690;39.202;-77.198;2023-10-19T07:24:26;100692.94;;;11.58;53.97
50105;BME280;47690;39.202;-77.198;2023-10-19T07:26:56;100696.41;;;11.55;53.95
50105;BME280;47690;39.202;-77.198;2023-10-19T07:29:58;100689.53;;;11.53;53.91
50105;BME280;47690;39.202;-77.198;2023-10-19T07:32:28;100690.47;;;11.48;54.06
50105;BME280;47690;39.202;-77.198;2023-10-19T07:34:58;100687.91;;;11.47;53.77
50105;BME280;47690;39.202;-77.198;2023-10-19T07:37:29;100676.78;;;11.42;53.97
50105;BME280;47690;39.202;-77.198;2023-10-19T07:39:59;100675.94;;;11.40;53.96
50105;BME280;47690;39.202;-77.198;2023-10-19T07:42:28;100674.25;;;11.39;53.91
50105;BME280;47690;39.202;-77.198;2023-10-19T07:45:02;100661.34;;;11.37;53.93
50105;BME280;47690;39.202;-77.198;2023-10-19T07:47:32;100666.53;;;11.36;53.94
50105;BME280;47690;39.202;-77.198;2023-10-19T07:50:02;100655.44;;;11.27;53.76
50105;BME280;47690;39.202;-77.198;2023-10-19T07:52:32;100661.41;;;11.31;53.96
50105;BME280;47690;39.202;-77.198;2023-10-19T07:55:05;100658.91;;;11.28;53.78
50105;BME280;47690;39.202;-77.198;2023-10-19T07:57:42;100657.19;;;11.27;53.83
50105;BME280;47690;39.202;-77.198;2023-10-19T08:00:12;100652.91;;;11.24;53.72
50105;BME280;47690;39.202;-77.198;2023-10-19T08:02:49;100648.66;;;11.20;53.74
50105;BME280;47690;39.202;-77.198;2023-10-19T08:05:20;100658.13;;;11.18;53.88
50105;BME280;47690;39.202;-77.198;2023-10-19T08:07:49;100651.28;;;11.14;53.95
50105;BME280;47690;39.202;-77.198;2023-10-19T08:10:20;100645.31;;;11.13;53.93
50105;BME280;47690;39.202;-77.198;2023-10-19T08:12:52;100643.59;;;11.09;54.01
50105;BME280;47690;39.202;-77.198;2023-10-19T08:15:22;100641.91;;;11.11;54.00
50105;BME280;47690;39.202;-77.198;2023-10-19T08:17:59;100641.03;;;11.11;54.05
50105;BME280;47690;39.202;-77.198;2023-10-19T08:20:29;100635.03;;;11.09;53.93
50105;BME280;47690;39.202;-77.198;2023-10-19T08:23:07;100631.59;;;11.08;53.78
50105;BME280;47690;39.202;-77.198;2023-10-19T08:25:42;100634.19;;;11.06;53.80
50105;BME280;47690;39.202;-77.198;2023-10-19T08:28:24;100634.22;;;11.03;53.75
50105;BME280;47690;39.202;-77.198;2023-10-19T08:30:54;100636.00;;;11.00;53.62
50105;BME280;47690;39.202;-77.198;2023-10-19T08:33:29;100632.63;;;10.93;53.67
50105;BME280;47690;39.202;-77.198;2023-10-19T08:36:01;100636.91;;;10.94;53.73
50105;BME280;47690;39.202;-77.198;2023-10-19T08:38:55;100642.91;;;10.95;53.65
50105;BME280;47690;39.202;-77.198;2023-10-19T08:41:24;100650.69;;;10.90;53.84
50105;BME280;47690;39.202;-77.198;2023-10-19T08:44:02;100648.16;;;10.87;53.53
50105;BME280;47690;39.202;-77.198;2023-10-19T08:46:43;100647.28;;;10.85;53.52
50105;BME280;47690;39.202;-77.198;2023-10-19T08:49:15;100645.59;;;10.84;53.51
50105;BME280;47690;39.202;-77.198;2023-10-19T08:51:45;100647.34;;;10.80;53.56
50105;BME280;47690;39.202;-77.198;2023-10-19T08:54:15;100648.22;;;10.77;53.58
50105;BME280;47690;39.202;-77.198;2023-10-19T08:56:47;100653.38;;;10.77;53.56
50105;BME280;47690;39.202;-77.198;2023-10-19T08:59:17;100645.69;;;10.74;53.96
50105;BME280;47690;39.202;-77.198;2023-10-19T09:01:46;100640.56;;;10.71;53.79
50105;BME280;47690;39.202;-77.198;2023-10-19T09:04:18;100647.41;;;10.74;53.85
50105;BME280;47690;39.202;-77.198;2023-10-19T09:06:48;100654.28;;;10.72;53.56
50105;BME280;47690;39.202;-77.198;2023-10-19T09:09:18;100638.00;;;10.68;54.08
50105;BME280;47690;39.202;-77.198;2023-10-19T09:11:49;100651.75;;;10.67;53.70
50105;BME280;47690;39.202;-77.198;2023-10-19T09:14:33;100656.03;;;10.68;53.54
50105;BME280;47690;39.202;-77.198;2023-10-19T09:17:03;100655.22;;;10.66;53.70
50105;BME280;47690;39.202;-77.198;2023-10-19T09:19:47;100652.69;;;10.63;53.72
50105;BME280;47690;39.202;-77.198;2023-10-19T09:22:16;100652.69;;;10.60;53.63
50105;BME280;47690;39.202;-77.198;2023-10-19T09:24:54;100650.97;;;10.57;53.68
50105;BME280;47690;39.202;-77.198;2023-10-19T09:27:23;100653.59;;;10.56;53.73
50105;BME280;47690;39.202;-77.198;2023-10-19T09:29:52;100655.31;;;10.54;54.01
50105;BME280;47690;39.202;-77.198;2023-10-19T09:32:22;100648.44;;;10.52;53.94
50105;BME280;47690;39.202;-77.198;2023-10-19T09:34:53;100651.94;;;10.47;53.64
50105;BME280;47690;39.202;-77.198;2023-10-19T09:37:23;100656.22;;;10.48;53.81
50105;BME280;47690;39.202;-77.198;2023-10-19T09:39:55;100665.66;;;10.47;53.52
50105;BME280;47690;39.202;-77.198;2023-10-19T09:42:28;100660.53;;;10.46;53.93
50105;BME280;47690;39.202;-77.198;2023-10-19T09:44:59;100657.09;;;10.45;53.65
50105;BME280;47690;39.202;-77.198;2023-10-19T09:47:37;100657.97;;;10.44;53.77
50105;BME280;47690;39.202;-77.198;2023-10-19T09:50:13;100657.13;;;10.42;53.95
50105;BME280;47690;39.202;-77.198;2023-10-19T09:52:46;100657.97;;;10.41;54.26
50105;BME280;47690;39.202;-77.198;2023-10-19T09:55:32;100657.13;;;10.42;53.89
50105;BME280;47690;39.202;-77.198;2023-10-19T09:58:16;100658.81;;;10.40;53.79
50105;BME280;47690;39.202;-77.198;2023-10-19T10:00:51;100657.16;;;10.36;54.08
50105;BME280;47690;39.202;-77.198;2023-10-19T10:06:15;100653.72;;;10.34;53.78
50105;BME280;47690;39.202;-77.198;2023-10-19T10:09:12;100652.00;;;10.36;53.93
50105;BME280;47690;39.202;-77.198;2023-10-19T10:11:54;100646.00;;;10.31;53.74
50105;BME280;47690;39.202;-77.198;2023-10-19T10:14:25;100651.19;;;10.28;53.77
50105;BME280;47690;39.202;-77.198;2023-10-19T10:17:04;100658.06;;;10.25;53.99
50105;BME280;47690;39.202;-77.198;2023-10-19T10:19:47;100654.69;;;10.20;53.91
50105;BME280;47690;39.202;-77.198;2023-10-19T10:22:28;100653.81;;;10.23;54.19
50105;BME280;47690;39.202;-77.198;2023-10-19T10:25:27;100648.63;;;10.24;53.99
50105;BME280;47690;39.202;-77.198;2023-10-19T10:27:58;100651.25;;;10.21;53.74
50105;BME280;47690;39.202;-77.198;2023-10-19T10:30:28;100647.84;;;10.18;53.80
50105;BME280;47690;39.202;-77.198;2023-10-19T10:33:04;100646.13;;;10.15;53.80
50105;BME280;47690;39.202;-77.198;2023-10-19T10:38:19;100639.28;;;10.13;53.91
50105;BME280;47690;39.202;-77.198;2023-10-19T10:40:52;100637.56;;;10.10;53.66
50105;BME280;47690;39.202;-77.198;2023-10-19T10:43:26;100629.88;;;10.07;53.81
50105;BME280;47690;39.202;-77.198;2023-10-19T10:46:27;100632.47;;;10.08;53.74
50105;BME280;47690;39.202;-77.198;2023-10-19T10:48:57;100635.91;;;10.06;54.16
50105;BME280;47690;39.202;-77.198;2023-10-19T10:51:29;100630.75;;;10.04;54.12
50105;BME280;47690;39.202;-77.198;2023-10-19T10:53:59;100632.50;;;10.02;53.83
50105;BME280;47690;39.202;-77.198;2023-10-19T10:56:31;100623.91;;;10.02;53.83
50105;BME280;47690;39.202;-77.198;2023-10-19T10:59:12;100627.34;;;10.02;54.30
50105;BME280;47690;39.202;-77.198;2023-10-19T11:01:42;100628.22;;;10.00;54.18
50105;BME280;47690;39.202;-77.198;2023-10-19T11:04:15;100628.22;;;10.00;54.23
50105;BME280;47690;39.202;-77.198;2023-10-19T11:06:54;100623.06;;;9.98;54.04
50105;BME280;47690;39.202;-77.198;2023-10-19T11:09:28;100627.38;;;9.94;53.94
50105;BME280;47690;39.202;-77.198;2023-10-19T11:12:13;100623.97;;;9.94;53.76
50105;BME280;47690;39.202;-77.198;2023-10-19T11:17:23;100623.97;;;9.92;53.98
50105;BME280;47690;39.202;-77.198;2023-10-19T11:19:59;100619.66;;;9.94;54.04
50105;BME280;47690;39.202;-77.198;2023-10-19T11:22:29;100621.41;;;9.92;54.36
50105;BME280;47690;39.202;-77.198;2023-10-19T11:25:21;100611.97;;;9.93;54.36
50105;BME280;47690;39.202;-77.198;2023-10-19T11:27:51;100608.53;;;9.91;54.35
50105;BME280;47690;39.202;-77.198;2023-10-19T11:30:29;100607.66;;;9.92;54.07
50105;BME280;47690;39.202;-77.198;2023-10-19T11:33:15;100614.56;;;9.91;54.38
50105;BME280;47690;39.202;-77.198;2023-10-19T11:35:51;100611.13;;;9.88;54.38
50105;BME280;47690;39.202;-77.198;2023-10-19T11:38:28;100609.41;;;9.88;54.12
50105;BME280;47690;39.202;-77.198;2023-10-19T11:41:24;100611.09;;;9.91;54.21
50105;BME280;47690;39.202;-77.198;2023-10-19T11:44:00;100601.69;;;9.91;54.51
50105;BME280;47690;39.202;-77.198;2023-10-19T11:46:31;100599.13;;;9.88;54.16
50105;BME280;47690;39.202;-77.198;2023-10-19T11:49:01;100599.97;;;9.90;54.53
50105;BME280;47690;39.202;-77.198;2023-10-19T11:51:32;100611.97;;;9.90;54.70
50105;BME280;47690;39.202;-77.198;2023-10-19T11:54:06;100600.84;;;9.89;54.63
50105;BME280;47690;39.202;-77.198;2023-10-19T11:56:49;100599.09;;;9.93;54.48
50105;BME280;47690;39.202;-77.198;2023-10-19T11:59:24;100601.66;;;9.96;54.55
50105;BME280;47690;39.202;-77.198;2023-10-19T12:01:53;100612.81;;;9.96;54.92
50105;BME280;47690;39.202;-77.198;2023-10-19T12:04:23;100621.38;;;9.98;54.58
50105;BME280;47690;39.202;-77.198;2023-10-19T12:06:53;100616.22;;;9.98;54.71
50105;BME280;47690;39.202;-77.198;2023-10-19T12:09:23;100616.22;;;9.98;54.95
50105;BME280;47690;39.202;-77.198;2023-10-19T12:11:52;100616.16;;;10.06;55.21
50105;BME280;47690;39.202;-77.198;2023-10-19T12:14:24;100613.53;;;10.14;55.14
50105;BME280;47690;39.202;-77.198;2023-10-19T12:16:53;100612.63;;;10.21;55.11
50105;BME280;47690;39.202;-77.198;2023-10-19T12:19:37;100610.78;;;10.33;55.70
50105;BME280;47690;39.202;-77.198;2023-10-19T12:22:18;100606.47;;;10.39;55.61
50105;BME280;47690;39.202;-77.198;2023-10-19T12:24:51;100600.44;;;10.47;55.78
50105;BME280;47690;39.202;-77.198;2023-10-19T12:27:20;100602.91;;;10.55;56.13
50105;BME280;47690;39.202;-77.198;2023-10-19T12:29:52;100601.16;;;10.63;56.56
50105;BME280;47690;39.202;-77.198;2023-10-19T12:32:27;100600.19;;;10.72;56.79
50105;BME280;47690;39.202;-77.198;2023-10-19T12:34:58;100607.84;;;10.78;56.69
50105;BME280;47690;39.202;-77.198;2023-10-19T12:37:29;100607.75;;;10.87;57.25
50105;BME280;47690;39.202;-77.198;2023-10-19T12:39:59;100606.84;;;10.93;57.29
50105;BME280;47690;39.202;-77.198;2023-10-19T12:42:29;100602.47;;;10.98;57.42
50105;BME280;47690;39.202;-77.198;2023-10-19T12:44:59;100611.84;;;11.09;57.62
50105;BME280;47690;39.202;-77.198;2023-10-19T12:47:30;100603.19;;;11.13;57.91
50105;BME280;47690;39.202;-77.198;2023-10-19T12:50:00;100615.13;;;11.20;58.32
50105;BME280;47690;39.202;-77.198;2023-10-19T12:52:34;100612.47;;;11.29;58.42
50105;BME280;47690;39.202;-77.198;2023-10-19T12:55:11;100609.75;;;11.39;58.35
50105;BME280;47690;39.202;-77.198;2023-10-19T12:57:43;100608.75;;;11.51;59.06
50105;BME280;47690;39.202;-77.198;2023-10-19T13:00:12;100609.50;;;11.59;59.32
50105;BME280;47690;39.202;-77.198;2023-10-19T13:03:12;100608.38;;;11.79;59.71
50105;BME280;47690;39.202;-77.198;2023-10-19T13:05:44;100609.91;;;11.92;60.23
50105;BME280;47690;39.202;-77.198;2023-10-19T13:08:15;100607.16;;;12.05;60.20
50105;BME280;47690;39.202;-77.198;2023-10-19T13:10:47;100616.44;;;12.16;60.63
50105;BME280;47690;39.202;-77.198;2023-10-19T13:13:17;100604.22;;;12.26;60.80
50105;BME280;47690;39.202;-77.198;2023-10-19T13:15:47;100609.22;;;12.37;61.06